createdAt,value
2023-05-20T00:01:00.998Z,28.52
2023-05-20T00:03:32.970Z,28.38
2023-05-20T00:06:24.172Z,32.53
2023-05-20T00:08:57.385Z,28.75
2023-05-20T00:11:28.770Z,29.73
2023-05-20T00:14:00.142Z,28.80
2023-05-20T00:16:31.545Z,26.25
2023-05-20T00:21:46.641Z,27.05
2023-05-20T00:24:17.875Z,28.95
2023-05-20T00:27:09.029Z,27.98
2023-05-20T00:29:40.190Z,33.17
2023-05-20T00:32:31.134Z,32.30
2023-05-20T00:35:02.862Z,31.25
2023-05-20T00:37:34.800Z,26.27
2023-05-20T00:40:06.786Z,29.65
2023-05-20T00:42:38.260Z,27.50
2023-05-20T00:45:14.747Z,28.95
2023-05-20T00:47:46.542Z,27.92
2023-05-20T00:50:17.770Z,31.02
2023-05-20T00:52:50.112Z,26.13
2023-05-20T00:55:22.403Z,27.02
2023-05-20T00:57:55.024Z,24.90
2023-05-20T01:00:26.077Z,27.70
2023-05-20T01:03:02.819Z,27.65
2023-05-20T01:05:36.324Z,27.45
2023-05-20T01:08:09.486Z,26.83
2023-05-20T01:10:45.451Z,27.92
2023-05-20T01:13:20.389Z,23.63
2023-05-20T01:16:12.155Z,27.65
2023-05-20T01:18:45.865Z,23.98
2023-05-20T01:23:48.297Z,25.05
2023-05-20T01:26:26.053Z,27.92
2023-05-20T01:29:02.301Z,25.88
2023-05-20T01:31:38.377Z,27.05
2023-05-20T01:34:10.451Z,25.67
2023-05-20T01:36:44.556Z,28.90
2023-05-20T01:39:17.382Z,29.23
2023-05-20T01:41:50.895Z,27.20
2023-05-20T01:44:22.791Z,29.13
2023-05-20T01:46:54.903Z,27.17
2023-05-20T01:49:26.125Z,26.88
2023-05-20T01:51:58.035Z,29.25
2023-05-20T01:54:58.866Z,25.60
2023-05-20T01:57:41.725Z,26.20
2023-05-20T02:00:17.568Z,17.92
2023-05-20T02:02:50.079Z,26.13
2023-05-20T02:05:26.044Z,26.55
2023-05-20T02:07:58.796Z,24.73
2023-05-20T02:10:30.480Z,26.85
2023-05-20T02:13:02.792Z,23.20
2023-05-20T02:15:54.688Z,31.30
2023-05-20T02:18:28.985Z,23.90
2023-05-20T02:21:20.513Z,27.20
2023-05-20T02:23:52.394Z,26.73
2023-05-20T02:26:24.580Z,25.02
2023-05-20T02:29:18.962Z,27.17
2023-05-20T02:31:51.224Z,28.70
2023-05-20T02:34:42.831Z,24.50
2023-05-20T02:37:33.806Z,29.95
2023-05-20T02:40:06.582Z,24.67
2023-05-20T02:42:38.446Z,25.57
2023-05-20T02:45:11.325Z,24.85
2023-05-20T02:47:43.606Z,28.92
2023-05-20T02:50:17.239Z,28.80
2023-05-20T02:53:08.985Z,31.80
2023-05-20T02:55:41.534Z,29.20
2023-05-20T02:58:32.842Z,29.38
2023-05-20T03:01:12.581Z,28.38
2023-05-20T03:03:44.632Z,31.25
2023-05-20T03:06:16.185Z,30.48
2023-05-20T03:08:48.967Z,26.17
2023-05-20T03:11:41.277Z,31.40
2023-05-20T03:14:14.240Z,28.52
2023-05-20T03:16:46.046Z,28.70
2023-05-20T03:19:26.967Z,28.88
2023-05-20T03:21:59.557Z,30.15
2023-05-20T03:24:31.767Z,29.25
2023-05-20T03:27:04.993Z,61.60
2023-05-20T03:29:40.356Z,34.50
2023-05-20T03:32:33.948Z,33.60
2023-05-20T03:35:17.235Z,32.40
2023-05-20T03:37:49.677Z,32.42
2023-05-20T03:40:22.923Z,29.17
2023-05-20T03:45:26.521Z,42.63
2023-05-20T03:48:43.483Z,42.58
2023-05-20T03:51:34.782Z,32.83
2023-05-20T03:54:11.662Z,30.92
2023-05-20T03:56:48.518Z,30.25
2023-05-20T03:59:45.879Z,35.83
2023-05-20T04:02:18.213Z,41.28
2023-05-20T04:04:50.040Z,36.58
2023-05-20T04:07:41.267Z,35.45
2023-05-20T04:10:14.342Z,33.85
2023-05-20T04:12:47.349Z,32.25
2023-05-20T04:15:19.315Z,30.65
2023-05-20T04:18:03.637Z,36.90
2023-05-20T04:20:36.414Z,38.30
2023-05-20T04:23:07.918Z,30.77
2023-05-20T04:26:04.183Z,33.60
2023-05-20T04:28:36.812Z,39.17
2023-05-20T04:31:12.534Z,33.38
2023-05-20T04:33:47.827Z,36.85
2023-05-20T04:36:41.669Z,34.88
2023-05-20T04:39:16.012Z,36.70
2023-05-20T04:41:50.272Z,34.80
2023-05-20T04:46:57.508Z,36.97
2023-05-20T04:50:12.608Z,28.13
2023-05-20T04:52:47.958Z,32.97
2023-05-20T04:55:20.575Z,38.65
2023-05-20T04:57:53.345Z,34.92
2023-05-20T05:00:29.153Z,37.67
2023-05-20T05:03:00.937Z,36.45
2023-05-20T05:05:34.459Z,39.58
2023-05-20T05:08:08.044Z,40.30
2023-05-20T05:10:44.667Z,39.50
2023-05-20T05:13:17.701Z,31.33
2023-05-20T05:15:49.592Z,40.22
2023-05-20T05:18:28.345Z,39.03
2023-05-20T05:21:07.026Z,33.85
2023-05-20T05:23:40.108Z,39.83
2023-05-20T05:26:33.980Z,42.20
2023-05-20T05:31:41.283Z,40.85
2023-05-20T05:34:37.719Z,44.08
2023-05-20T05:37:33.371Z,38.80
2023-05-20T05:40:29.497Z,39.08
2023-05-20T05:43:24.183Z,34.17
2023-05-20T05:45:57.742Z,26.10
2023-05-20T05:48:52.588Z,39.13
2023-05-20T05:51:25.911Z,33.67
2023-05-20T05:54:01.114Z,26.75
2023-05-20T05:56:35.792Z,20.58
2023-05-20T05:59:11.869Z,39.97
2023-05-20T06:01:45.335Z,38.97
2023-05-20T06:04:17.340Z,38.40
2023-05-20T06:06:51.270Z,44.08
2023-05-20T06:10:05.506Z,38.40
2023-05-20T06:12:41.673Z,39.88
2023-05-20T06:15:14.826Z,44.72
2023-05-20T06:17:50.952Z,45.72
2023-05-20T06:20:29.233Z,36.38
2023-05-20T06:23:20.677Z,34.10
2023-05-20T06:26:05.296Z,38.50
2023-05-20T06:28:36.932Z,39.65
2023-05-20T06:31:24.910Z,45.72
2023-05-20T06:34:23.129Z,44.88
2023-05-20T06:37:26.448Z,39.55
2023-05-20T06:40:20.530Z,37.75
2023-05-20T06:42:57.157Z,33.25
2023-05-20T06:45:49.474Z,31.00
2023-05-20T06:48:29.656Z,30.50
2023-05-20T06:51:02.174Z,33.60
2023-05-20T06:53:34.370Z,34.05
2023-05-20T06:56:06.014Z,29.58
2023-05-20T06:58:37.939Z,28.40
2023-05-20T07:01:14.550Z,25.75
2023-05-20T07:03:47.895Z,24.50
2023-05-20T07:06:22.995Z,21.58
2023-05-20T07:08:54.513Z,18.45
2023-05-20T07:11:26.214Z,21.02
2023-05-20T07:13:59.909Z,30.13
2023-05-20T07:16:37.054Z,34.10
2023-05-20T07:19:28.067Z,27.60
2023-05-20T07:22:03.581Z,29.55
2023-05-20T07:25:00.420Z,32.78
2023-05-20T07:30:24.429Z,35.00
2023-05-20T07:33:32.713Z,36.47
2023-05-20T07:36:04.732Z,33.90
2023-05-20T07:38:36.752Z,40.25
2023-05-20T07:41:31.332Z,36.03
2023-05-20T07:44:05.505Z,39.65
2023-05-20T07:46:40.211Z,35.30
2023-05-20T07:49:20.129Z,41.17
2023-05-20T07:51:52.469Z,44.80
2023-05-20T07:54:25.955Z,44.47
2023-05-20T07:57:24.274Z,42.17
2023-05-20T07:59:59.070Z,41.60
2023-05-20T08:02:56.511Z,37.83
2023-05-20T08:05:50.822Z,36.65
2023-05-20T08:08:23.292Z,34.22
2023-05-20T08:10:59.568Z,38.65
2023-05-20T08:13:36.164Z,36.88
2023-05-20T08:16:29.089Z,27.98
2023-05-20T08:19:01.156Z,32.42
2023-05-20T08:21:32.989Z,37.17
2023-05-20T08:24:43.627Z,37.28
2023-05-20T08:27:16.213Z,36.70
2023-05-20T08:29:48.376Z,41.13
2023-05-20T08:32:20.424Z,42.70
2023-05-20T08:34:58.475Z,45.13
2023-05-20T08:37:33.038Z,45.90
2023-05-20T08:40:06.167Z,47.90
2023-05-20T08:42:38.033Z,42.35
2023-05-20T08:45:10.634Z,41.35
2023-05-20T08:48:05.285Z,45.20
2023-05-20T08:50:37.762Z,45.60
2023-05-20T08:53:11.776Z,37.80
2023-05-20T08:55:46.851Z,39.75
2023-05-20T08:58:21.183Z,39.08
2023-05-20T09:00:55.160Z,34.80
2023-05-20T09:03:30.840Z,36.15
2023-05-20T09:06:12.348Z,36.40
2023-05-20T09:09:05.029Z,37.90
2023-05-20T09:11:43.184Z,37.78
2023-05-20T09:14:15.014Z,37.92
2023-05-20T09:16:50.733Z,41.72
2023-05-20T09:19:30.460Z,38.95
2023-05-20T09:22:03.737Z,41.50
2023-05-20T09:24:35.654Z,34.35
2023-05-20T09:27:08.960Z,41.95
2023-05-20T09:29:47.294Z,42.60
2023-05-20T09:32:21.408Z,42.97
2023-05-20T09:35:00.456Z,45.90
2023-05-20T09:37:34.341Z,44.28
2023-05-20T09:40:38.774Z,51.17
2023-05-20T09:43:15.510Z,41.17
2023-05-20T09:45:48.642Z,43.97
2023-05-20T09:51:29.868Z,46.50
2023-05-20T09:54:05.167Z,46.08
2023-05-20T09:56:57.323Z,47.63
2023-05-20T09:59:41.346Z,47.58
2023-05-20T10:02:13.352Z,50.10
2023-05-20T10:04:49.966Z,42.67
2023-05-20T10:07:41.928Z,37.85
2023-05-20T10:10:17.648Z,35.35
2023-05-20T10:13:10.274Z,37.88
2023-05-20T10:15:59.876Z,36.70
2023-05-20T10:18:40.427Z,35.97
2023-05-20T10:21:23.995Z,32.63
2023-05-20T10:24:15.016Z,32.88
2023-05-20T10:27:06.729Z,33.00
2023-05-20T10:29:59.645Z,32.53
2023-05-20T10:32:36.565Z,30.25
2023-05-20T10:35:11.704Z,29.05
2023-05-20T10:37:47.648Z,25.00
2023-05-20T10:40:21.796Z,27.15
2023-05-20T10:43:13.524Z,27.40
2023-05-20T10:45:52.607Z,28.38
2023-05-20T10:48:28.457Z,26.27
2023-05-20T10:51:05.626Z,27.85
2023-05-20T10:53:45.217Z,30.83
2023-05-20T10:56:24.293Z,29.10
2023-05-20T10:58:59.260Z,23.98
2023-05-20T11:01:38.660Z,28.60
2023-05-20T11:04:20.907Z,30.27
2023-05-20T11:07:12.490Z,34.08
2023-05-20T11:09:53.048Z,32.72
2023-05-20T11:12:31.892Z,34.45
2023-05-20T11:15:06.411Z,38.90
2023-05-20T11:17:38.583Z,37.17
2023-05-20T11:20:12.234Z,38.58
2023-05-20T11:22:44.556Z,39.35
2023-05-20T11:25:16.794Z,36.40
2023-05-20T11:28:08.838Z,40.67
2023-05-20T11:31:00.353Z,38.63
2023-05-20T11:34:13.590Z,37.08
2023-05-20T11:37:01.178Z,77.07
2023-05-20T11:39:33.314Z,61.03
2023-05-20T11:42:04.733Z,55.33
2023-05-20T11:44:56.068Z,39.40
2023-05-20T11:48:18.461Z,58.85
2023-05-20T11:51:12.050Z,50.70
2023-05-20T11:53:44.692Z,55.17
2023-05-20T11:56:18.125Z,30.00
2023-05-20T11:58:51.674Z,46.63
2023-05-20T12:01:25.059Z,47.08
2023-05-20T12:03:58.232Z,50.78
2023-05-20T12:06:30.695Z,44.72
2023-05-20T12:09:13.002Z,45.58
2023-05-20T12:12:05.706Z,45.65
2023-05-20T12:14:37.798Z,40.20
2023-05-20T12:17:10.796Z,41.97
2023-05-20T12:20:04.379Z,43.20
2023-05-20T12:22:56.746Z,44.90
2023-05-20T12:25:33.152Z,41.40
2023-05-20T12:30:51.770Z,47.60
2023-05-20T12:33:34.999Z,39.95
2023-05-20T12:36:26.851Z,45.28
2023-05-20T12:39:00.052Z,28.52
2023-05-20T12:41:34.776Z,41.70
2023-05-20T12:44:26.564Z,31.27
2023-05-20T12:47:18.750Z,43.13
2023-05-20T12:50:29.607Z,34.30
2023-05-20T12:53:42.110Z,36.97
2023-05-20T12:56:15.385Z,40.72
2023-05-20T12:58:47.167Z,35.42
2023-05-20T13:01:41.050Z,37.72
2023-05-20T13:04:13.033Z,42.75
2023-05-20T13:07:06.303Z,41.78
2023-05-20T13:09:40.525Z,39.55
2023-05-20T13:12:32.445Z,37.75
2023-05-20T13:19:07.893Z,31.45
2023-05-20T13:21:40.240Z,33.50
2023-05-20T13:24:13.911Z,83.35
2023-05-20T13:27:08.678Z,44.03
2023-05-20T13:29:41.949Z,31.83
2023-05-20T13:32:15.195Z,39.17
2023-05-20T13:35:06.607Z,36.33
2023-05-20T13:37:43.232Z,38.08
2023-05-20T13:43:09.492Z,33.08
2023-05-20T13:45:43.898Z,19.08
2023-05-20T13:49:14.480Z,37.85
2023-05-20T13:51:47.686Z,27.17
2023-05-20T13:54:59.163Z,34.95
2023-05-20T13:57:32.547Z,29.42
2023-05-20T14:00:06.389Z,21.27
2023-05-20T14:02:43.108Z,26.25
2023-05-20T14:05:56.521Z,32.35
2023-05-20T14:08:50.402Z,30.35
2023-05-20T14:11:23.802Z,28.35
2023-05-20T14:13:56.146Z,27.92
2023-05-20T14:16:31.071Z,35.13
2023-05-20T14:19:03.208Z,31.40
2023-05-20T14:24:42.078Z,28.35
2023-05-20T14:27:23.335Z,31.20
2023-05-20T14:29:55.635Z,29.55
2023-05-20T14:32:48.223Z,23.63
2023-05-20T14:35:23.228Z,32.28
2023-05-20T14:37:58.664Z,32.38
2023-05-20T14:40:49.822Z,30.92
2023-05-20T14:43:25.728Z,34.00
2023-05-20T14:46:18.399Z,32.00
2023-05-20T14:49:25.672Z,30.90
2023-05-20T14:51:58.904Z,35.67
2023-05-20T14:54:51.289Z,37.17
2023-05-20T14:57:25.070Z,31.38
2023-05-20T14:59:57.683Z,27.92
2023-05-20T15:02:31.175Z,30.63
2023-05-20T15:05:05.742Z,27.17
2023-05-20T15:07:47.872Z,31.20
2023-05-20T15:10:59.865Z,29.20
2023-05-20T15:13:33.526Z,26.73
2023-05-20T15:18:49.123Z,29.00
2023-05-20T15:21:43.584Z,32.63
2023-05-20T15:24:54.239Z,30.75
2023-05-20T15:27:48.200Z,32.03
2023-05-20T15:30:41.503Z,18.40
2023-05-20T15:33:33.174Z,24.65
2023-05-20T15:36:24.912Z,21.83
2023-05-20T15:38:56.835Z,24.75
2023-05-20T15:41:29.830Z,25.75
2023-05-20T15:44:23.104Z,30.70
2023-05-20T15:47:16.574Z,27.42
2023-05-20T15:50:10.116Z,32.63
2023-05-20T15:55:14.027Z,20.55
2023-05-20T15:58:07.953Z,25.20
2023-05-20T16:00:59.313Z,20.52
2023-05-20T16:03:53.863Z,26.38
2023-05-20T16:06:31.170Z,26.52
2023-05-20T16:09:23.824Z,22.00
2023-05-20T16:11:55.523Z,28.70
2023-05-20T16:14:32.047Z,25.17
2023-05-20T16:17:25.526Z,23.70
2023-05-20T16:20:17.095Z,25.02
2023-05-20T16:22:49.928Z,25.17
2023-05-20T16:25:41.214Z,27.95
2023-05-20T16:28:18.051Z,28.65
2023-05-20T16:30:52.360Z,22.08
2023-05-20T16:33:28.020Z,27.77
2023-05-20T16:36:00.251Z,28.70
2023-05-20T16:38:51.559Z,25.27
2023-05-20T16:41:26.185Z,28.00
2023-05-20T16:43:59.971Z,25.30
2023-05-20T16:46:53.892Z,25.00
2023-05-20T16:49:30.153Z,32.95
2023-05-20T16:52:02.210Z,27.58
2023-05-20T16:54:34.339Z,27.60
2023-05-20T16:57:17.348Z,29.20
2023-05-20T17:00:14.481Z,25.52
2023-05-20T17:03:13.128Z,28.15
2023-05-20T17:06:06.152Z,25.25
2023-05-20T17:08:39.770Z,26.13
2023-05-20T17:11:13.076Z,16.48
2023-05-20T17:13:45.116Z,15.48
2023-05-20T17:16:16.650Z,11.80
2023-05-20T17:18:50.028Z,21.52
2023-05-20T17:21:25.177Z,29.80
2023-05-20T17:23:57.902Z,25.90
2023-05-20T17:26:50.500Z,24.33
2023-05-20T17:29:22.400Z,27.63
2023-05-20T17:32:16.069Z,30.35
2023-05-20T17:34:47.564Z,27.20
2023-05-20T17:37:19.052Z,26.75
2023-05-20T17:39:53.023Z,24.90
2023-05-20T17:42:26.264Z,21.52
2023-05-20T17:45:18.201Z,26.33
2023-05-20T17:47:51.269Z,17.07
2023-05-20T17:50:42.995Z,23.98
2023-05-20T17:53:14.882Z,22.13
2023-05-20T17:56:06.248Z,30.55
2023-05-20T17:58:39.256Z,19.42
2023-05-20T18:01:31.955Z,27.35
2023-05-20T18:04:24.859Z,27.42
2023-05-20T18:06:56.496Z,30.38
2023-05-20T18:09:27.688Z,26.27
2023-05-20T18:11:58.967Z,27.02
2023-05-20T18:14:30.593Z,24.60
2023-05-20T18:17:02.427Z,25.05
2023-05-20T18:19:36.650Z,24.63
2023-05-20T18:22:09.034Z,27.17
2023-05-20T18:24:40.147Z,21.35
2023-05-20T18:27:11.188Z,20.88
2023-05-20T18:29:42.702Z,27.50
2023-05-20T18:32:14.048Z,25.70
2023-05-20T18:34:45.233Z,19.85
2023-05-20T18:37:17.678Z,22.55
2023-05-20T18:39:49.979Z,23.67
2023-05-20T18:42:40.873Z,21.35
2023-05-20T18:45:12.499Z,20.92
2023-05-20T18:47:43.936Z,23.70
2023-05-20T18:50:15.278Z,24.88
2023-05-20T18:52:46.766Z,23.85
2023-05-20T18:55:18.269Z,25.70
2023-05-20T18:57:51.969Z,22.25
2023-05-20T19:00:23.400Z,22.80
2023-05-20T19:02:54.853Z,22.77
2023-05-20T19:05:26.531Z,25.30
2023-05-20T19:07:58.098Z,25.35
2023-05-20T19:10:29.651Z,22.13
2023-05-20T19:13:02.229Z,20.85
2023-05-20T19:15:34.681Z,25.98
2023-05-20T19:18:06.022Z,23.13
2023-05-20T19:20:37.524Z,22.45
2023-05-20T19:23:08.600Z,28.63
2023-05-20T19:25:39.998Z,30.73
2023-05-20T19:28:11.148Z,25.60
2023-05-20T19:30:42.755Z,22.73
2023-05-20T19:33:14.052Z,21.70
2023-05-20T19:35:45.353Z,23.85
2023-05-20T19:38:16.629Z,23.33
2023-05-20T19:40:48.809Z,22.88
2023-05-20T19:43:20.117Z,24.73
2023-05-20T19:45:51.559Z,15.02
2023-05-20T19:48:22.728Z,27.90
2023-05-20T19:50:54.018Z,25.65
2023-05-20T19:53:25.212Z,30.90
2023-05-20T19:55:56.344Z,22.05
2023-05-20T19:58:27.679Z,20.42
2023-05-20T20:00:58.774Z,19.38
2023-05-20T20:03:29.916Z,21.05
2023-05-20T20:06:01.282Z,22.55
2023-05-20T20:08:33.051Z,18.63
2023-05-20T20:11:04.256Z,18.27
2023-05-20T20:13:35.534Z,24.88
2023-05-20T20:16:07.031Z,24.80
2023-05-20T20:18:38.180Z,21.38
2023-05-20T20:21:10.878Z,20.40
2023-05-20T20:23:43.425Z,25.65
2023-05-20T20:26:15.605Z,24.98
2023-05-20T20:28:46.910Z,22.00
2023-05-20T20:31:18.102Z,21.65
2023-05-20T20:33:49.482Z,24.17
2023-05-20T20:36:20.640Z,27.88
2023-05-20T20:38:52.324Z,19.70
2023-05-20T20:41:23.843Z,24.73
2023-05-20T20:43:55.259Z,23.75
2023-05-20T20:46:29.282Z,23.55
2023-05-20T20:49:01.332Z,15.35
2023-05-20T20:51:32.844Z,25.52
2023-05-20T20:54:04.131Z,16.58
2023-05-20T20:56:38.457Z,16.98
2023-05-20T20:59:11.884Z,27.10
2023-05-20T21:01:43.413Z,23.10
2023-05-20T21:04:15.282Z,22.33
2023-05-20T21:06:49.523Z,21.80
2023-05-20T21:09:20.950Z,21.45
2023-05-20T21:11:53.131Z,24.83
2023-05-20T21:14:24.192Z,22.15
2023-05-20T21:16:55.366Z,10.05
2023-05-20T21:19:26.597Z,22.00
2023-05-20T21:21:57.913Z,22.88
2023-05-20T21:24:29.018Z,22.85
2023-05-20T21:27:00.789Z,24.70
2023-05-20T21:29:32.888Z,23.40
2023-05-20T21:32:04.061Z,23.00
2023-05-20T21:34:35.290Z,23.65
2023-05-20T21:37:06.663Z,23.67
2023-05-20T21:39:40.272Z,16.98
2023-05-20T21:42:11.675Z,22.13
2023-05-20T21:44:43.016Z,20.05
2023-05-20T21:47:14.123Z,20.38
2023-05-20T21:49:45.464Z,19.27
2023-05-20T21:52:16.981Z,22.02
2023-05-20T21:54:48.302Z,19.13
2023-05-20T21:57:19.612Z,22.60
2023-05-20T21:59:50.678Z,28.88
2023-05-20T22:02:21.902Z,20.63
2023-05-20T22:04:53.307Z,22.42
2023-05-20T22:07:24.427Z,21.60
2023-05-20T22:09:55.495Z,20.50
2023-05-20T22:12:27.041Z,19.65
2023-05-20T22:14:58.394Z,12.43
2023-05-20T22:17:29.789Z,23.55
2023-05-20T22:20:01.703Z,20.58
2023-05-20T22:22:33.962Z,24.00
2023-05-20T22:25:05.660Z,22.00
2023-05-20T22:27:36.783Z,28.13
2023-05-20T22:30:09.789Z,19.55
2023-05-20T22:32:41.784Z,26.87
2023-05-20T22:35:14.699Z,32.20
2023-05-20T22:37:45.821Z,63.67
2023-05-20T22:40:17.105Z,214.88
2023-05-20T22:42:48.152Z,906.33
2023-05-20T22:45:19.429Z,1056.97
2023-05-20T22:47:50.879Z,285.25
2023-05-20T22:50:22.291Z,31.70
2023-05-20T22:52:53.379Z,39.17
2023-05-20T22:55:25.705Z,35.17
2023-05-20T22:57:57.097Z,35.53
2023-05-20T23:00:28.407Z,47.92
2023-05-20T23:03:00.039Z,32.75
2023-05-20T23:05:31.826Z,27.85
2023-05-20T23:08:03.238Z,62.65
2023-05-20T23:10:34.525Z,41.63
2023-05-20T23:13:05.914Z,41.55
2023-05-20T23:15:37.737Z,40.97
2023-05-20T23:18:09.142Z,35.85
2023-05-20T23:20:41.941Z,32.85
2023-05-20T23:23:13.114Z,19.10
2023-05-20T23:25:45.729Z,25.73
2023-05-20T23:28:18.345Z,33.60
2023-05-20T23:30:50.690Z,32.90
2023-05-20T23:33:25.423Z,17.40
2023-05-20T23:35:57.143Z,27.30
2023-05-20T23:38:28.303Z,27.75
2023-05-20T23:40:59.738Z,28.80
2023-05-20T23:43:31.087Z,33.50
2023-05-20T23:46:02.333Z,31.65
2023-05-20T23:48:33.654Z,35.97
2023-05-20T23:51:05.193Z,29.60
2023-05-20T23:53:36.328Z,39.78
2023-05-20T23:56:09.278Z,39.55
2023-05-20T23:58:40.522Z,43.23
